Domov               UVHVVR             MKGP            O straneh              
ZDRAVSTVENO VARSTVO RASTLIN
  MREŽA AGROMET. POSTAJ
 ► PROGNOSTIČNA OBVESTILA
AGROMETEOROLOŠKI PODATKI -
ARSO
OBVLADOVANJE TVEGANJ ZARADI
NEUGODNIH VREMENSKIH RAZMER
  ► NARAVNE NESREČE
  ► SUŠA/MOČA
  ► NAMAKANJE
  ► ŽLED (gozdarstvo)
KARTOGRAFSKI PRIKAZI
SPLETNE POVEZAVE
PROJEKTI IN PUBLIKACIJE

AGROMETEOROLOŠKA MREŽA: VREMENSKE POSTAJE IN FENOLOŠKA OPAZOVANJA

Pregled podatkov za lokacijo Šentjernej APS, meteorološka postaja 49205

Pregled senzorjev na lokaciji

ID Ime Zadnja
vrednost
Datum in čas
zadnje
spremembe
(Lokalni čas)
Tip
senzorja
3731 Sončno sevanje (W/m2) 599.62 W/m2 4.7.2020 17:00 Pyranometer SP-Lite
3730 Omočenost lista (U) 0 U 4.7.2020 17:00 A730WET
5065 Padavine (mm) 0 mm 4.7.2020 17:00 Generic 0.2 mm
3729 Relativna vlaga 2 m (% RH) 47.88 % RH 4.7.2020 17:00 50YA
3728 Temperatura 2 m (°C) 25.07 °C 4.7.2020 17:00 50YA
3734 Smer vetra (°) 118.29 ° 4.7.2020 17:00 566.2S-130
3733 Hitrost vetra (km/h) 13.39 km/h 4.7.2020 17:00 566.2S-176 (200km/h)

Pregled podatkov zadnjih 24 ur

Zap.
št.
Datum in čas
(Centralno
evropski čas)
Šentjernej APS
Sončno
sevanje
Omočenost
lista
Padavine Relativna
vlaga
2
m
Temperatura
2
m
Smer
vetra
Hitrost
vetra
1 4.7.2020 17:30
2 4.7.2020 17:00
3 4.7.2020 16:30
4 4.7.2020 16:00 599.6 0 0 47.9 25.1 118.3 13.4
5 4.7.2020 15:30 645.9 0 0 45.6 25 65.1 14.3
6 4.7.2020 15:00 753.8 0 0 47.3 25.2 54.1 11.7
7 4.7.2020 14:30 729.5 0 0 48.6 25.2 64.1 9.7
8 4.7.2020 14:00 747.2 0 0 49 25 85.5 9.9
9 4.7.2020 13:30 741.6 0 0 48.2 24.6 93.5 12.7
10 4.7.2020 13:00 827.7 0 0 49 24.6 80.5 11.5
11 4.7.2020 12:30 803.5 0 0 53.8 24 94.3 11.7
12 4.7.2020 12:00 757.4 0 0 57.4 23.8 76.2 13.7
13 4.7.2020 11:30 1008.4 0 0 55.6 23.9 103.2 13.6
14 4.7.2020 11:00 918 0 0 60.7 23.3 63.9 12.9
15 4.7.2020 10:30 776.4 0 0 61.3 23.1 79.2 9.7
16 4.7.2020 10:00 579.6 0 0 63 22.2 69.8 9.4
17 4.7.2020 09:30 627.6 0 0 69.6 21.6 38.1 7.1
18 4.7.2020 09:00 388.4 0 0 85.4 19.8 13.2 4
19 4.7.2020 08:30 296.9 0 0 85.4 19.8 26.8 4.8
20 4.7.2020 08:00 497.9 0 0 89.1 19.1 235.5 3.5
21 4.7.2020 07:30 400.2 1 0 94.6 18 341.7 3
22 4.7.2020 07:00 346.5 2 0 98.5 16.9 350.3 2.8
23 4.7.2020 06:30 279.3 2 0 100 15.8 319.8 2.1
24 4.7.2020 06:00 162.6 2 0 100 14.4 4.9 1.6
25 4.7.2020 05:30 61.2 2 0 100 13.7 328.9 0.1
26 4.7.2020 05:00 24.9 2 0 100 13.6 93.6 0.4
27 4.7.2020 04:30 7 2 0 100 13.5 197.5 0.1
28 4.7.2020 04:00 0.8 2 0 100 13.7 250.4 1.7
29 4.7.2020 03:30 0.3 2 0 100 13.8 188.7 1
30 4.7.2020 03:00 0.2 2 0 100 14.1 154.4 0.1
31 4.7.2020 02:30 0.3 2 0 100 14 185 1
32 4.7.2020 02:00 0.3 2 0 100 14.1 183.2 0.1
33 4.7.2020 01:30 0.3 2 0 100 14.3 246.7 0.4
34 4.7.2020 01:00 0.2 2 0 100 14.2 160.2 1.8
35 4.7.2020 00:30 0.3 3 0 100 14.2 172.7 4.6
36 4.7.2020 00:00 0.3 2 0 100 14.2 175.8 4.4
37 3.7.2020 23:30 0.2 2 0 100 14.4 167.7 2.2
38 3.7.2020 23:00 0.2 2 0 100 14.7 178.8 3
39 3.7.2020 22:30 0.3 2 0 100 14.7 163.2 3.3
40 3.7.2020 22:00 0.3 3 0 100 15 168.6 1.3
41 3.7.2020 21:30 0.3 3 0 100 15.2 176.1 5.3
42 3.7.2020 21:00 0.3 3 0 100 15.7 168.9 5.8
43 3.7.2020 20:30 1 2 0 100 16.6 150.5 5
44 3.7.2020 20:00 7.7 2 0 100 17.6 193.2 1.9
45 3.7.2020 19:30 30.9 2 0 96.6 18.7 203.8 0.1
46 3.7.2020 19:00 70.7 0 0 87.3 20 334.4 0.1
47 3.7.2020 18:30 171.5 0 0 83.2 20.6 257 0.1
48 3.7.2020 18:00 238.3 1 0 83.8 20.3 352.6 0.1
© 2011 Ministrstvo za kmetijstvo, gozdarstvo in prehrano. Vse pravice pridržane.